sensor_id;sensor_type;location;lat;lon;timestamp;pressure;altitude;pressure_sealevel;temperature;humidity
4024;BME280;2026;51.002;13.668;2023-04-21T00:01:03;99152.53;;;5.65;100.00
4024;BME280;2026;51.002;13.668;2023-04-21T00:06:09;99137.72;;;5.66;100.00
4024;BME280;2026;51.002;13.668;2023-04-21T00:11:12;99132.13;;;5.54;100.00
4024;BME280;2026;51.002;13.668;2023-04-21T00:16:18;99135.19;;;5.58;100.00
4024;BME280;2026;51.002;13.668;2023-04-21T00:21:21;99132.38;;;5.44;100.00
4024;BME280;2026;51.002;13.668;2023-04-21T00:26:24;99136.31;;;5.40;100.00
4024;BME280;2026;51.002;13.668;2023-04-21T00:31:28;99140.69;;;5.24;100.00
4024;BME280;2026;51.002;13.668;2023-04-21T00:36:31;99138.25;;;5.23;100.00
4024;BME280;2026;51.002;13.668;2023-04-21T00:41:35;99140.31;;;5.28;100.00
4024;BME280;2026;51.002;13.668;2023-04-21T00:46:40;99132.59;;;5.19;100.00
4024;BME280;2026;51.002;13.668;2023-04-21T00:51:44;99127.09;;;5.14;100.00
4024;BME280;2026;51.002;13.668;2023-04-21T00:56:49;99124.09;;;5.02;100.00
4024;BME280;2026;51.002;13.668;2023-04-21T01:01:53;99130.53;;;4.91;100.00
4024;BME280;2026;51.002;13.668;2023-04-21T01:06:57;99128.78;;;4.83;100.00
4024;BME280;2026;51.002;13.668;2023-04-21T01:12:01;99122.47;;;4.78;100.00
4024;BME280;2026;51.002;13.668;2023-04-21T01:17:09;99111.00;;;4.72;100.00
4024;BME280;2026;51.002;13.668;2023-04-21T01:22:13;99108.19;;;4.74;100.00
4024;BME280;2026;51.002;13.668;2023-04-21T01:27:18;99105.81;;;4.72;100.00
4024;BME280;2026;51.002;13.668;2023-04-21T01:32:23;99107.09;;;4.68;100.00
4024;BME280;2026;51.002;13.668;2023-04-21T01:37:31;99112.81;;;4.63;100.00
4024;BME280;2026;51.002;13.668;2023-04-21T01:42:36;99109.13;;;4.57;100.00
4024;BME280;2026;51.002;13.668;2023-04-21T01:47:39;99106.75;;;4.48;100.00
4024;BME280;2026;51.002;13.668;2023-04-21T01:52:43;99108.19;;;4.50;100.00
4024;BME280;2026;51.002;13.668;2023-04-21T01:57:48;99096.66;;;4.53;100.00
4024;BME280;2026;51.002;13.668;2023-04-21T02:02:51;99101.22;;;4.42;100.00
4024;BME280;2026;51.002;13.668;2023-04-21T02:07:56;99101.66;;;4.23;100.00
4024;BME280;2026;51.002;13.668;2023-04-21T02:12:59;99101.03;;;4.21;100.00
4024;BME280;2026;51.002;13.668;2023-04-21T02:18:03;99091.91;;;4.25;100.00
4024;BME280;2026;51.002;13.668;2023-04-21T02:23:08;99094.19;;;4.20;100.00
4024;BME280;2026;51.002;13.668;2023-04-21T02:28:11;99091.00;;;4.09;100.00
4024;BME280;2026;51.002;13.668;2023-04-21T02:33:14;99088.25;;;4.11;100.00
4024;BME280;2026;51.002;13.668;2023-04-21T02:38:19;99085.19;;;4.07;100.00
4024;BME280;2026;51.002;13.668;2023-04-21T02:43:22;99087.63;;;4.00;100.00
4024;BME280;2026;51.002;13.668;2023-04-21T02:48:24;99080.34;;;3.96;100.00
4024;BME280;2026;51.002;13.668;2023-04-21T02:53:30;99085.88;;;3.93;100.00
4024;BME280;2026;51.002;13.668;2023-04-21T02:58:33;99083.66;;;3.73;100.00
4024;BME280;2026;51.002;13.668;2023-04-21T03:03:37;99080.91;;;3.74;100.00
4024;BME280;2026;51.002;13.668;2023-04-21T03:08:41;99082.09;;;3.47;100.00
4024;BME280;2026;51.002;13.668;2023-04-21T03:13:44;99084.16;;;3.68;100.00
4024;BME280;2026;51.002;13.668;2023-04-21T03:18:47;99088.03;;;3.72;100.00
4024;BME280;2026;51.002;13.668;2023-04-21T03:23:51;99089.50;;;3.75;100.00
4024;BME280;2026;51.002;13.668;2023-04-21T03:28:54;99083.69;;;3.65;100.00
4024;BME280;2026;51.002;13.668;2023-04-21T03:33:57;99086.59;;;3.70;100.00
4024;BME280;2026;51.002;13.668;2023-04-21T03:39:02;99082.22;;;3.70;100.00
4024;BME280;2026;51.002;13.668;2023-04-21T03:44:20;99081.88;;;3.73;100.00
4024;BME280;2026;51.002;13.668;2023-04-21T03:49:23;99082.53;;;3.67;100.00
4024;BME280;2026;51.002;13.668;2023-04-21T03:54:28;99086.28;;;3.56;100.00
4024;BME280;2026;51.002;13.668;2023-04-21T03:59:31;99089.06;;;3.55;100.00
4024;BME280;2026;51.002;13.668;2023-04-21T04:04:34;99084.34;;;3.42;100.00
4024;BME280;2026;51.002;13.668;2023-04-21T04:09:39;99087.78;;;3.42;100.00
4024;BME280;2026;51.002;13.668;2023-04-21T04:14:41;99096.19;;;3.53;100.00
4024;BME280;2026;51.002;13.668;2023-04-21T04:19:44;99101.84;;;3.48;100.00
4024;BME280;2026;51.002;13.668;2023-04-21T04:24:49;99105.72;;;3.69;100.00
4024;BME280;2026;51.002;13.668;2023-04-21T04:29:51;99100.16;;;3.88;100.00
4024;BME280;2026;51.002;13.668;2023-04-21T04:34:54;99110.03;;;4.01;100.00
4024;BME280;2026;51.002;13.668;2023-04-21T04:39:59;99111.09;;;4.79;97.84
4024;BME280;2026;51.002;13.668;2023-04-21T04:45:02;99109.41;;;5.09;96.10
4024;BME280;2026;51.002;13.668;2023-04-21T04:50:06;99107.03;;;6.06;92.84
4024;BME280;2026;51.002;13.668;2023-04-21T04:55:10;99113.59;;;6.54;92.11
4024;BME280;2026;51.002;13.668;2023-04-21T05:00:13;99107.88;;;6.81;92.90
4024;BME280;2026;51.002;13.668;2023-04-21T05:05:16;99106.56;;;7.07;92.10
4024;BME280;2026;51.002;13.668;2023-04-21T05:10:21;99111.59;;;7.37;91.22
4024;BME280;2026;51.002;13.668;2023-04-21T05:15:24;99106.97;;;7.61;90.11
4024;BME280;2026;51.002;13.668;2023-04-21T05:20:27;99117.72;;;7.79;90.40
4024;BME280;2026;51.002;13.668;2023-04-21T05:25:31;99114.53;;;8.26;88.35
4024;BME280;2026;51.002;13.668;2023-04-21T05:30:34;99118.53;;;8.22;89.53
4024;BME280;2026;51.002;13.668;2023-04-21T05:35:37;99132.41;;;8.91;87.43
4024;BME280;2026;51.002;13.668;2023-04-21T05:40:41;99125.41;;;9.32;86.04
4024;BME280;2026;51.002;13.668;2023-04-21T05:45:44;99126.84;;;9.69;85.43
4024;BME280;2026;51.002;13.668;2023-04-21T05:50:47;99113.13;;;9.80;86.54
4024;BME280;2026;51.002;13.668;2023-04-21T05:55:52;99105.88;;;9.75;86.28
4024;BME280;2026;51.002;13.668;2023-04-21T06:00:54;99107.75;;;10.21;85.55
4024;BME280;2026;51.002;13.668;2023-04-21T06:05:59;99109.75;;;10.25;83.17
4024;BME280;2026;51.002;13.668;2023-04-21T06:11:04;99098.16;;;11.62;81.23
4024;BME280;2026;51.002;13.668;2023-04-21T06:16:07;99102.13;;;11.90;78.82
4024;BME280;2026;51.002;13.668;2023-04-21T06:21:10;99106.22;;;12.04;78.32
4024;BME280;2026;51.002;13.668;2023-04-21T06:26:14;99108.91;;;12.35;78.23
4024;BME280;2026;51.002;13.668;2023-04-21T06:31:17;99094.78;;;12.90;77.07
4024;BME280;2026;51.002;13.668;2023-04-21T06:36:20;99102.81;;;12.96;78.08
4024;BME280;2026;51.002;13.668;2023-04-21T06:41:25;99093.31;;;12.52;76.69
4024;BME280;2026;51.002;13.668;2023-04-21T06:46:29;99091.94;;;11.63;80.44
4024;BME280;2026;51.002;13.668;2023-04-21T06:51:32;99085.63;;;12.81;79.19
4024;BME280;2026;51.002;13.668;2023-04-21T06:56:36;99082.94;;;13.59;70.62
4024;BME280;2026;51.002;13.668;2023-04-21T07:01:39;99083.34;;;14.45;68.05
4024;BME280;2026;51.002;13.668;2023-04-21T07:06:42;99080.47;;;14.93;63.21
4024;BME280;2026;51.002;13.668;2023-04-21T07:11:46;99087.03;;;14.90;62.35
4024;BME280;2026;51.002;13.668;2023-04-21T07:16:49;99082.53;;;15.25;62.80
4024;BME280;2026;51.002;13.668;2023-04-21T07:21:52;99085.19;;;15.25;60.34
4024;BME280;2026;51.002;13.668;2023-04-21T07:26:57;99084.94;;;15.09;60.49
4024;BME280;2026;51.002;13.668;2023-04-21T07:32:00;99080.28;;;16.40;59.31
4024;BME280;2026;51.002;13.668;2023-04-21T07:37:02;99076.28;;;15.71;57.14
4024;BME280;2026;51.002;13.668;2023-04-21T07:42:07;99072.41;;;15.56;59.56
4024;BME280;2026;51.002;13.668;2023-04-21T07:47:12;99065.06;;;16.03;59.04
4024;BME280;2026;51.002;13.668;2023-04-21T07:52:15;99066.66;;;16.04;58.89
4024;BME280;2026;51.002;13.668;2023-04-21T07:57:19;99067.78;;;16.35;56.86
4024;BME280;2026;51.002;13.668;2023-04-21T08:02:22;99068.50;;;16.53;56.83
4024;BME280;2026;51.002;13.668;2023-04-21T08:07:26;99066.66;;;16.04;56.00
4024;BME280;2026;51.002;13.668;2023-04-21T08:12:30;99066.47;;;16.38;54.84
4024;BME280;2026;51.002;13.668;2023-04-21T08:17:33;99063.66;;;16.77;54.74
4024;BME280;2026;51.002;13.668;2023-04-21T08:22:36;99070.16;;;16.32;56.47
4024;BME280;2026;51.002;13.668;2023-04-21T08:27:41;99063.56;;;16.95;54.71
4024;BME280;2026;51.002;13.668;2023-04-21T08:32:44;99057.75;;;17.36;52.74
4024;BME280;2026;51.002;13.668;2023-04-21T08:37:47;99053.19;;;17.79;52.00
4024;BME280;2026;51.002;13.668;2023-04-21T08:42:54;99047.81;;;17.58;51.89
4024;BME280;2026;51.002;13.668;2023-04-21T08:48:00;99044.53;;;17.41;51.58
4024;BME280;2026;51.002;13.668;2023-04-21T08:53:05;99044.84;;;18.13;51.24
4024;BME280;2026;51.002;13.668;2023-04-21T08:58:09;99060.94;;;17.96;51.13
4024;BME280;2026;51.002;13.668;2023-04-21T09:03:20;99048.72;;;17.90;49.62
4024;BME280;2026;51.002;13.668;2023-04-21T09:08:27;99038.81;;;18.70;47.93
4024;BME280;2026;51.002;13.668;2023-04-21T09:13:33;99039.06;;;18.89;41.56
4024;BME280;2026;51.002;13.668;2023-04-21T09:18:36;99030.00;;;19.27;40.32
4024;BME280;2026;51.002;13.668;2023-04-21T09:23:41;99035.78;;;19.55;38.27
4024;BME280;2026;51.002;13.668;2023-04-21T09:28:48;99025.59;;;19.72;39.16
4024;BME280;2026;51.002;13.668;2023-04-21T09:33:52;99022.72;;;19.58;38.09
4024;BME280;2026;51.002;13.668;2023-04-21T09:39:02;99020.53;;;19.76;37.13
4024;BME280;2026;51.002;13.668;2023-04-21T09:44:09;99022.69;;;19.63;37.26
4024;BME280;2026;51.002;13.668;2023-04-21T09:49:15;99020.78;;;19.74;36.86
4024;BME280;2026;51.002;13.668;2023-04-21T09:54:19;99017.09;;;19.65;35.82
4024;BME280;2026;51.002;13.668;2023-04-21T09:59:34;99008.38;;;19.59;34.41
4024;BME280;2026;51.002;13.668;2023-04-21T10:04:40;99011.53;;;19.67;34.95
4024;BME280;2026;51.002;13.668;2023-04-21T10:09:46;99006.06;;;19.98;36.53
4024;BME280;2026;51.002;13.668;2023-04-21T10:14:52;99000.94;;;20.12;37.04
4024;BME280;2026;51.002;13.668;2023-04-21T10:19:57;99001.97;;;20.16;36.05
4024;BME280;2026;51.002;13.668;2023-04-21T10:25:01;98993.94;;;20.21;36.08
4024;BME280;2026;51.002;13.668;2023-04-21T10:30:20;98982.38;;;19.91;35.39
4024;BME280;2026;51.002;13.668;2023-04-21T10:35:24;98983.75;;;20.34;35.80
4024;BME280;2026;51.002;13.668;2023-04-21T10:40:33;98976.78;;;19.98;35.02
4024;BME280;2026;51.002;13.668;2023-04-21T10:45:44;98985.44;;;20.19;36.03
4024;BME280;2026;51.002;13.668;2023-04-21T10:50:47;98977.94;;;20.26;34.62
4024;BME280;2026;51.002;13.668;2023-04-21T10:55:51;98971.72;;;20.71;35.21
4024;BME280;2026;51.002;13.668;2023-04-21T11:00:56;98984.78;;;20.38;33.55
4024;BME280;2026;51.002;13.668;2023-04-21T11:06:13;98963.66;;;20.17;34.96
4024;BME280;2026;51.002;13.668;2023-04-21T11:11:20;98963.25;;;20.64;32.82
4024;BME280;2026;51.002;13.668;2023-04-21T11:16:26;98964.41;;;20.52;33.44
4024;BME280;2026;51.002;13.668;2023-04-21T11:21:29;98966.03;;;20.18;34.11
4024;BME280;2026;51.002;13.668;2023-04-21T11:26:33;98955.03;;;20.60;34.51
4024;BME280;2026;51.002;13.668;2023-04-21T11:31:42;98957.13;;;20.93;34.49
4024;BME280;2026;51.002;13.668;2023-04-21T11:36:47;98958.81;;;20.24;34.89
4024;BME280;2026;51.002;13.668;2023-04-21T11:41:50;98953.47;;;20.83;34.14
4024;BME280;2026;51.002;13.668;2023-04-21T11:46:55;98939.16;;;21.28;34.24
4024;BME280;2026;51.002;13.668;2023-04-21T11:51:58;98954.94;;;20.70;35.14
4024;BME280;2026;51.002;13.668;2023-04-21T11:57:01;98949.59;;;20.70;34.93
4024;BME280;2026;51.002;13.668;2023-04-21T12:02:12;98952.84;;;20.97;34.85
4024;BME280;2026;51.002;13.668;2023-04-21T12:07:21;98940.59;;;20.96;35.25
4024;BME280;2026;51.002;13.668;2023-04-21T12:12:24;98952.06;;;20.91;36.02
4024;BME280;2026;51.002;13.668;2023-04-21T12:17:36;98945.13;;;20.66;35.54
4024;BME280;2026;51.002;13.668;2023-04-21T12:22:39;98936.22;;;21.05;35.57
4024;BME280;2026;51.002;13.668;2023-04-21T12:27:49;98936.13;;;20.86;35.67
4024;BME280;2026;51.002;13.668;2023-04-21T12:32:54;98940.16;;;20.83;34.57
4024;BME280;2026;51.002;13.668;2023-04-21T12:37:57;98933.06;;;20.73;34.73
4024;BME280;2026;51.002;13.668;2023-04-21T12:43:00;98936.38;;;20.90;34.85
4024;BME280;2026;51.002;13.668;2023-04-21T12:48:04;98930.56;;;20.82;33.06
4024;BME280;2026;51.002;13.668;2023-04-21T12:53:07;98920.84;;;20.97;35.29
4024;BME280;2026;51.002;13.668;2023-04-21T12:58:10;98922.16;;;20.11;34.55
4024;BME280;2026;51.002;13.668;2023-04-21T13:03:17;98922.63;;;20.18;36.11
4024;BME280;2026;51.002;13.668;2023-04-21T13:08:20;98924.22;;;20.19;36.05
4024;BME280;2026;51.002;13.668;2023-04-21T13:13:23;98915.66;;;20.22;34.97
4024;BME280;2026;51.002;13.668;2023-04-21T13:18:28;98915.97;;;19.75;35.77
4024;BME280;2026;51.002;13.668;2023-04-21T13:23:31;98909.72;;;20.36;34.58
4024;BME280;2026;51.002;13.668;2023-04-21T13:28:34;98904.72;;;20.58;33.66
4024;BME280;2026;51.002;13.668;2023-04-21T13:33:39;98897.03;;;20.22;33.68
4024;BME280;2026;51.002;13.668;2023-04-21T13:38:42;98887.38;;;19.97;36.08
4024;BME280;2026;51.002;13.668;2023-04-21T13:43:46;98891.00;;;20.46;34.53
4024;BME280;2026;51.002;13.668;2023-04-21T13:48:50;98867.41;;;20.58;32.82
4024;BME280;2026;51.002;13.668;2023-04-21T13:53:53;98872.06;;;20.48;33.12
4024;BME280;2026;51.002;13.668;2023-04-21T13:58:57;98852.41;;;20.92;32.80
4024;BME280;2026;51.002;13.668;2023-04-21T14:04:02;98846.50;;;20.95;32.20
4024;BME280;2026;51.002;13.668;2023-04-21T14:09:05;98844.47;;;21.11;31.67
4024;BME280;2026;51.002;13.668;2023-04-21T14:14:10;98842.34;;;21.08;31.03
4024;BME280;2026;51.002;13.668;2023-04-21T14:19:18;98827.75;;;21.06;31.70
4024;BME280;2026;51.002;13.668;2023-04-21T14:24:21;98836.59;;;21.01;31.12
4024;BME280;2026;51.002;13.668;2023-04-21T14:29:26;98813.56;;;21.10;31.25
4024;BME280;2026;51.002;13.668;2023-04-21T14:34:30;98826.09;;;20.85;31.68
4024;BME280;2026;51.002;13.668;2023-04-21T14:39:33;98828.66;;;20.47;33.04
4024;BME280;2026;51.002;13.668;2023-04-21T14:44:36;98824.72;;;20.15;33.24
4024;BME280;2026;51.002;13.668;2023-04-21T14:49:41;98819.19;;;19.71;33.90
4024;BME280;2026;51.002;13.668;2023-04-21T14:54:44;98808.88;;;20.29;33.75
4024;BME280;2026;51.002;13.668;2023-04-21T14:59:48;98807.69;;;20.65;32.85
4024;BME280;2026;51.002;13.668;2023-04-21T15:04:53;98793.03;;;20.86;33.43
4024;BME280;2026;51.002;13.668;2023-04-21T15:09:56;98791.69;;;21.08;32.25
4024;BME280;2026;51.002;13.668;2023-04-21T15:14:59;98793.09;;;21.06;33.13
4024;BME280;2026;51.002;13.668;2023-04-21T15:20:05;98790.06;;;20.20;33.44
4024;BME280;2026;51.002;13.668;2023-04-21T15:25:08;98797.28;;;19.85;35.69
4024;BME280;2026;51.002;13.668;2023-04-21T15:30:12;98800.88;;;19.99;36.50
4024;BME280;2026;51.002;13.668;2023-04-21T15:35:17;98793.69;;;19.65;35.64
4024;BME280;2026;51.002;13.668;2023-04-21T15:40:20;98793.34;;;19.42;36.59
4024;BME280;2026;51.002;13.668;2023-04-21T15:45:23;98781.69;;;19.38;37.12
4024;BME280;2026;51.002;13.668;2023-04-21T15:50:28;98782.53;;;19.68;37.23
4024;BME280;2026;51.002;13.668;2023-04-21T15:55:32;98770.97;;;20.13;36.34
4024;BME280;2026;51.002;13.668;2023-04-21T16:00:35;98760.22;;;20.23;35.44
4024;BME280;2026;51.002;13.668;2023-04-21T16:05:40;98764.16;;;20.26;35.30
4024;BME280;2026;51.002;13.668;2023-04-21T16:10:43;98764.94;;;20.31;34.45
4024;BME280;2026;51.002;13.668;2023-04-21T16:15:46;98757.16;;;20.35;34.53
4024;BME280;2026;51.002;13.668;2023-04-21T16:20:51;98757.31;;;19.90;35.11
4024;BME280;2026;51.002;13.668;2023-04-21T16:25:54;98758.06;;;19.66;35.34
4024;BME280;2026;51.002;13.668;2023-04-21T16:30:57;98767.94;;;19.26;39.28
4024;BME280;2026;51.002;13.668;2023-04-21T16:36:02;98764.09;;;18.97;41.17
4024;BME280;2026;51.002;13.668;2023-04-21T16:41:06;98771.81;;;18.88;41.85
4024;BME280;2026;51.002;13.668;2023-04-21T16:46:09;98758.59;;;18.83;42.77
4024;BME280;2026;51.002;13.668;2023-04-21T16:51:13;98752.78;;;18.76;42.61
4024;BME280;2026;51.002;13.668;2023-04-21T16:56:16;98763.94;;;18.73;43.23
4024;BME280;2026;51.002;13.668;2023-04-21T17:01:20;98754.69;;;18.65;43.23
4024;BME280;2026;51.002;13.668;2023-04-21T17:06:25;98752.59;;;18.51;43.13
4024;BME280;2026;51.002;13.668;2023-04-21T17:11:29;98750.81;;;18.26;44.29
4024;BME280;2026;51.002;13.668;2023-04-21T17:16:33;98750.88;;;18.10;44.27
4024;BME280;2026;51.002;13.668;2023-04-21T17:21:37;98753.50;;;18.00;44.70
4024;BME280;2026;51.002;13.668;2023-04-21T17:26:40;98755.13;;;17.85;45.21
4024;BME280;2026;51.002;13.668;2023-04-21T17:31:43;98751.94;;;17.63;46.29
4024;BME280;2026;51.002;13.668;2023-04-21T17:36:48;98745.59;;;17.58;46.58
4024;BME280;2026;51.002;13.668;2023-04-21T17:41:51;98754.59;;;17.47;46.44
4024;BME280;2026;51.002;13.668;2023-04-21T17:46:54;98747.97;;;17.34;46.71
4024;BME280;2026;51.002;13.668;2023-04-21T17:51:59;98748.19;;;17.17;47.36
4024;BME280;2026;51.002;13.668;2023-04-21T17:57:02;98756.13;;;16.96;48.24
4024;BME280;2026;51.002;13.668;2023-04-21T18:02:07;98753.41;;;16.81;48.87
4024;BME280;2026;51.002;13.668;2023-04-21T18:07:12;98760.75;;;16.63;49.45
4024;BME280;2026;51.002;13.668;2023-04-21T18:12:15;98763.88;;;16.55;49.61
4024;BME280;2026;51.002;13.668;2023-04-21T18:17:19;98768.31;;;16.39;49.76
4024;BME280;2026;51.002;13.668;2023-04-21T18:22:25;98767.50;;;16.33;48.64
4024;BME280;2026;51.002;13.668;2023-04-21T18:27:28;98770.34;;;16.21;49.04
4024;BME280;2026;51.002;13.668;2023-04-21T18:32:31;98770.00;;;16.12;48.64
4024;BME280;2026;51.002;13.668;2023-04-21T18:37:36;98770.19;;;16.00;49.23
4024;BME280;2026;51.002;13.668;2023-04-21T18:42:39;98767.81;;;15.99;48.98
4024;BME280;2026;51.002;13.668;2023-04-21T18:47:42;98778.41;;;15.71;50.23
4024;BME280;2026;51.002;13.668;2023-04-21T18:52:48;98778.84;;;15.58;50.41
4024;BME280;2026;51.002;13.668;2023-04-21T18:57:52;98784.69;;;15.32;51.24
4024;BME280;2026;51.002;13.668;2023-04-21T19:02:55;98789.00;;;15.16;52.37
4024;BME280;2026;51.002;13.668;2023-04-21T19:08:00;98783.56;;;15.01;52.56
4024;BME280;2026;51.002;13.668;2023-04-21T19:13:03;98785.78;;;14.87;51.97
4024;BME280;2026;51.002;13.668;2023-04-21T19:18:06;98786.88;;;14.91;51.23
4024;BME280;2026;51.002;13.668;2023-04-21T19:23:11;98781.69;;;14.74;52.35
4024;BME280;2026;51.002;13.668;2023-04-21T19:28:14;98781.81;;;14.62;52.64
4024;BME280;2026;51.002;13.668;2023-04-21T19:33:17;98775.25;;;14.64;53.64
4024;BME280;2026;51.002;13.668;2023-04-21T19:38:21;98774.31;;;14.53;52.75
4024;BME280;2026;51.002;13.668;2023-04-21T19:43:24;98776.63;;;14.33;53.74
4024;BME280;2026;51.002;13.668;2023-04-21T19:48:27;98771.16;;;14.17;54.19
4024;BME280;2026;51.002;13.668;2023-04-21T19:53:31;98778.75;;;13.96;56.59
4024;BME280;2026;51.002;13.668;2023-04-21T19:58:34;98780.69;;;13.84;57.60
4024;BME280;2026;51.002;13.668;2023-04-21T20:03:41;98778.25;;;13.65;57.75
4024;BME280;2026;51.002;13.668;2023-04-21T20:08:45;98772.53;;;13.68;56.70
4024;BME280;2026;51.002;13.668;2023-04-21T20:13:49;98779.84;;;13.49;58.20
4024;BME280;2026;51.002;13.668;2023-04-21T20:18:52;98786.22;;;13.36;58.14
4024;BME280;2026;51.002;13.668;2023-04-21T20:23:57;98781.72;;;13.19;59.73
4024;BME280;2026;51.002;13.668;2023-04-21T20:29:00;98788.16;;;13.00;61.02
4024;BME280;2026;51.002;13.668;2023-04-21T20:34:03;98790.16;;;12.80;62.04
4024;BME280;2026;51.002;13.668;2023-04-21T20:39:07;98776.34;;;12.61;62.94
4024;BME280;2026;51.002;13.668;2023-04-21T20:44:10;98789.38;;;12.56;63.84
4024;BME280;2026;51.002;13.668;2023-04-21T20:49:14;98785.09;;;12.26;65.05
4024;BME280;2026;51.002;13.668;2023-04-21T20:54:19;98786.78;;;12.20;65.54
4024;BME280;2026;51.002;13.668;2023-04-21T20:59:21;98789.53;;;12.14;66.16
4024;BME280;2026;51.002;13.668;2023-04-21T21:04:25;98797.97;;;11.92;66.90
4024;BME280;2026;51.002;13.668;2023-04-21T21:09:30;98792.84;;;11.97;66.52
4024;BME280;2026;51.002;13.668;2023-04-21T21:14:33;98801.03;;;11.77;67.47
4024;BME280;2026;51.002;13.668;2023-04-21T21:19:36;98805.38;;;11.71;66.78
4024;BME280;2026;51.002;13.668;2023-04-21T21:24:41;98798.94;;;11.67;66.47
4024;BME280;2026;51.002;13.668;2023-04-21T21:29:44;98795.22;;;11.75;64.47
4024;BME280;2026;51.002;13.668;2023-04-21T21:34:47;98818.25;;;11.73;65.41
4024;BME280;2026;51.002;13.668;2023-04-21T21:39:51;98812.00;;;11.43;68.14
4024;BME280;2026;51.002;13.668;2023-04-21T21:44:55;98826.75;;;11.25;69.66
4024;BME280;2026;51.002;13.668;2023-04-21T21:49:58;98826.53;;;11.08;71.42
4024;BME280;2026;51.002;13.668;2023-04-21T21:55:03;98822.97;;;11.02;71.53
4024;BME280;2026;51.002;13.668;2023-04-21T22:00:07;98829.47;;;10.81;72.58
4024;BME280;2026;51.002;13.668;2023-04-21T22:05:13;98823.75;;;10.47;74.31
4024;BME280;2026;51.002;13.668;2023-04-21T22:10:17;98833.09;;;10.43;74.86
4024;BME280;2026;51.002;13.668;2023-04-21T22:15:20;98843.41;;;10.38;74.89
4024;BME280;2026;51.002;13.668;2023-04-21T22:20:23;98836.19;;;10.33;74.95
4024;BME280;2026;51.002;13.668;2023-04-21T22:25:28;98840.09;;;10.24;75.36
4024;BME280;2026;51.002;13.668;2023-04-21T22:30:31;98838.16;;;10.12;76.11
4024;BME280;2026;51.002;13.668;2023-04-21T22:35:34;98834.94;;;9.85;77.46
4024;BME280;2026;51.002;13.668;2023-04-21T22:40:39;98842.00;;;9.84;77.77
4024;BME280;2026;51.002;13.668;2023-04-21T22:45:42;98841.25;;;9.77;77.95
4024;BME280;2026;51.002;13.668;2023-04-21T22:50:45;98841.81;;;9.79;77.19
4024;BME280;2026;51.002;13.668;2023-04-21T22:55:49;98836.06;;;9.63;78.11
4024;BME280;2026;51.002;13.668;2023-04-21T23:00:52;98842.19;;;9.44;78.52
4024;BME280;2026;51.002;13.668;2023-04-21T23:05:55;98831.72;;;9.44;79.00
4024;BME280;2026;51.002;13.668;2023-04-21T23:10:59;98837.56;;;9.39;79.41
4024;BME280;2026;51.002;13.668;2023-04-21T23:16:04;98839.88;;;9.22;80.43
4024;BME280;2026;51.002;13.668;2023-04-21T23:21:07;98838.88;;;9.23;80.19
4024;BME280;2026;51.002;13.668;2023-04-21T23:26:12;98836.72;;;9.06;80.99
4024;BME280;2026;51.002;13.668;2023-04-21T23:31:15;98839.16;;;9.01;81.32
4024;BME280;2026;51.002;13.668;2023-04-21T23:36:17;98838.78;;;8.84;81.86
4024;BME280;2026;51.002;13.668;2023-04-21T23:41:22;98834.78;;;8.81;81.99
4024;BME280;2026;51.002;13.668;2023-04-21T23:46:25;98831.59;;;8.59;82.70
4024;BME280;2026;51.002;13.668;2023-04-21T23:51:28;98824.59;;;8.46;83.91
4024;BME280;2026;51.002;13.668;2023-04-21T23:56:33;98821.38;;;8.44;83.84
